Logs | Log Session 6528
Paging Controls
Log ID Operator
(If Remote)
Date UTC KHz ID Location S/P ITU Region GSQ LSB USB Sec. Fmt. Power KM Miles Deg
2226194 2021-11-28 0530 285 UHA Quaqtaq QC CAN na FP51eb 500 4244 2637 312
2226221 2021-11-28 0530 300 CEU Ceuta CEU af IM75iv 1837 1141 198
2226230 2021-11-28 0330 304 ISD Svalbard / Longyear / Isfjord SVB eu JQ68tb 2967 1843 5
2226235 2021-11-27 2330 307.5 PA Palma De Mallorca BAL eu JM19jo 1359 844 173
2226241 2021-11-27 2330 310 NO Kiev / Boryspil UKR eu KO50kg 2073 1288 82
2226262 2021-11-27 2130 316 GZP Gazipasa TUR as KM66dh 2990 1858 112
2226199 2021-11-27 1930 289 HR Hericourt FRA eu JN37in 25 616 383 137
2226190 2021-11-27 1930 284 AM Almeria ESP eu IM86vv 20 1675 1040 190
2226206 2021-11-27 0530 292 NOV Novara (NO) ITA eu JN45jk 901 560 138
2226189 2021-11-27 0530 282 NF Minsk Mazowiecki / Faktor POL eu KO02ue 1406 873 79
2226242 2021-11-27 0530 310 AMN Almeria ESP eu IM86tu 1681 1045 190
2226212 2021-11-27 0530 295 HD Solovki RUS eu KP75ua 2446 1520 39
2226229 2021-11-27 0330 304 MOK Bordj Mokhtar ALG af JL01li 3382 2101 180
2226193 2021-11-27 0130 284.5 LVK Namsos / Leirvika NOR eu JP54pk 50 1525 948 18
2226220 2021-11-27 0130 300 KD Kbely / Praha East CZE eu JO70hd 961 597 95
2226257 2021-11-26 2330 316 BRR Barra SCT eu IO67ga 805 500 319
2226227 2021-11-26 2330 303 RTT Innsbruck / Rattenberg AUT eu JN57xk 916 569 117
2226224 2021-11-26 2330 301.5 TRE Treviso (TV) ITA eu JN65bo 25 1057 657 126
2226226 2021-11-26 2330 302 NIK Niksic MNE eu JN92ls 40 1669 1037 119
2226225 2021-11-26 2330 302 ROM Rodez / Marcillac FRA eu JN14hi 832 517 171
2226256 2021-11-26 2330 316 BJO Bjornoya / Bear Isl BRI eu JQ94nm 50 2660 1652 11
2226258 2021-11-26 2330 316 RE Reykjanesskoli ISL eu HP85sw 2053 1276 329
2226222 2021-11-26 2330 300 SC Linkoping / Malmen And Saab SWE eu JO78sk 1175 730 45
2226219 2021-11-26 2330 300 PV Novi Sad / Cenej / Petrovaradin SRB eu JN95rd 1533 953 111
2226259 2021-11-26 2330 316 TNJ Tounj HRV eu JN75qg 1271 790 119
2226231 2021-11-26 2330 305 LT Alert Bay NU CAN na FR82vm 1000 3937 2446 348
2226214 2021-11-26 2330 297 FR Frankfurt DEU eu JO40ib 25 564 351 106
2226255 2021-11-26 2330 315 TM Roschino / Tyumen RSE as MO27qf 4035 2507 55
2226234 2021-11-26 2330 307 LA Lazarevskoye RUS eu KN93pw 2940 1827 91
2226236 2021-11-26 2330 308 VT Vitoria ESP eu IN82ot 1039 645 197
2226237 2021-11-26 2330 308 MOJ Mojkovac MNE eu JN92sw 40 1692 1051 118
2226238 2021-11-26 2330 309 LG Satenas / Tune SWE eu JO68ik 1042 648 40
2226240 2021-11-26 2330 310 GGN Gorgan IRN as LM76ev 4431 2753 90
2226243 2021-11-26 2330 310 BI Kiev / Boryspil UKR eu KO50kj 2069 1286 82
2226251 2021-11-26 2330 313 KI Klagenfurt AUT eu JN76ep 1116 693 115
2226250 2021-11-26 2330 312 KBG Karlsborg SWE eu JO78el 1122 697 43
2226247 2021-11-26 2330 311 NSN Niederstetten DEU eu JN49xj 25 677 420 109
2226249 2021-11-26 2330 312 BOZ Bozhurishte BUL eu KN12os 1932 1200 112
2226272 2021-11-26 2330 318 LP Ronneby / Kallinge SWE eu JO76pi 1053 654 55
2226179 2021-11-26 2330 274 TNA Tan Tan MRC af IL48jk 2000 2789 1733 206
2226181 2021-11-26 2330 276 SC Sleptsovskaya / Ingushetia RUS eu LN23lh 3366 2091 88
2226182 2021-11-26 2330 277 PO Pulkovo RUS eu KO59et 2013 1251 52
2226276 2021-11-26 2330 319 HJ Akureyri / Hjalteyri ISL eu IP05vu 1904 1183 332
2226184 2021-11-26 2330 279 SI Simiutaq (Kitaa) GRL na GP60qq 3035 1886 307
2226185 2021-11-26 2330 280 QX Gander NL CAN na GN28px 1000 3874 2407 288
2226186 2021-11-26 2330 280 ND Swidwin POL eu JO73ws 1015 631 71
2226187 2021-11-26 2330 281 CA Cartwright NL CAN na GO13lr 1000 3810 2367 296
2226275 2021-11-26 2330 318 KLP Dubrovnik / Kolocep HRV eu JN92aq 50 1622 1008 121
2226274 2021-11-26 2330 318 GEN Genova (GE) ITA eu JN44mk 1004 624 141
2226192 2021-11-26 2330 284 GNA Gorna BUL eu KN23td 2063 1282 108
2226195 2021-11-26 2330 285 LCF Linkoping / Malmen SWE eu JO78rh 1163 723 45
2226196 2021-11-26 2330 285 URB Roma / Urbe (RM) ITA eu JN61fw 1389 863 137
2226270 2021-11-26 2330 318 OTR Bucuresti / Otopeni ROU eu KN34co 2010 1249 103
2226261 2021-11-26 2330 316 CAL Cagliari / Elmas SAR eu JM49mf 1523 946 153
2226216 2021-11-26 2330 297 BD Pazardjik / Malak Chardak BUL eu KN22ig 2063 1282 111
2226215 2021-11-26 2330 297 PEP Prilep MKD eu KN01ri 1928 1198 118
2226260 2021-11-26 2330 316 JA Beograd SRB eu KN04fr 1624 1009 111
2226211 2021-11-26 2330 295 DC Debrecen HNG eu KN07sk 1542 958 100
2226210 2021-11-26 2330 295 PT Skopje MKD eu KN01tv 50 1897 1178 117
2226209 2021-11-26 2330 294 VRA Vrsac SRB eu KN05pc 1655 1028 108
2226200 2021-11-26 2330 289 RI Rijeka / Krk HRV eu JN75hd 1235 767 121
2226207 2021-11-26 2330 293 STE Wien / Schwechat / Steinhof AUT eu JN88cf 1145 711 104
2226204 2021-11-26 2330 291 WS Grenoble / St Geoirs FRA eu JN25ni 771 479 156
2226267 2021-11-26 2330 318 AGB Augsburg DEU eu JN58lk 25 792 492 114
2226201 2021-11-26 2330 289 WR Chertovitskoye / Voronezh RUS eu KO91ou 2588 1608 74
2226205 2021-11-26 2130 292 MIA Melilla MEL af IM85mh 250 1859 1155 191
2226244 2021-11-26 2130 310 VA Amal V12 LBY af KL09ml 2973 1847 138
2226217 2021-11-26 2130 299 BO St Etienne / Boutheon FRA eu JN25dm 733 455 160
2226254 2021-11-26 1930 315 RG Tunosha RUS eu LO07cn 2555 1588 60
2226180 2021-11-26 1930 275 O UNID XUF xx
2226188 2021-11-26 1930 282 NSR Casablanca / Mohamed V MRC af IM63fg 2172 1350 202
2226263 2021-11-26 1205 316 OE Dublin IRL eu IO63sk 544 338 292
2226183 2021-11-26 1205 277 CHT Chiltern ENG eu IO91ro 25 116 72 261
2226191 2021-11-26 1205 284 FSB Fassberg DEU eu JO52cv 25 629 391 74
2226273 2021-11-26 1205 318 HIG Bremen DEU eu JO43kb 25 545 338 71
2226197 2021-11-26 1205 286.5 TA Villacoublay / Velizy FRA eu JN18bs 25 341 212 167
2226271 2021-11-26 1205 318 LE Luxembourg-Est LUX eu JN39dp 434 269 120
2226198 2021-11-26 1205 288.5 AVD Avord FRA eu JN17jc 50 533 331 166
2226269 2021-11-26 1205 318 BPL Blackpool ENG eu IO83ls 358 222 310
2226268 2021-11-26 1205 318 BE Bordeaux / Merignac FRA eu IN94tu 25 777 483 188
2226202 2021-11-26 1205 290 GRZ Graz AUT eu JN76rw 80 1166 725 111
2226266 2021-11-26 1205 317 VS Valenciennes / Denain FRA eu JO10qi 223 138 134
2226265 2021-11-26 1205 317 OZ Kardla EST eu KO18kw 1579 981 51
2226264 2021-11-26 1205 316 EPM Epsom for Heathrow ENG eu IO91th 25 116 72 244
2226248 2021-11-26 1205 311.5 ML Cewice POL eu JO84vj 1148 713 68
2226203 2021-11-26 1205 290 ONL Liege / Bierset BEL eu JO20sq 15 330 205 109
2226208 2021-11-26 1205 293 OB Brussels National BEL eu JO20hw 260 162 109
2226213 2021-11-26 1205 296 MG Ljubljana SVN eu JN76ge 1157 719 117
2226218 2021-11-26 1205 299.5 KN Svolvaer / Helle / Skrova NOR eu JP78hd 1959 1217 16
2226223 2021-11-26 1205 300.5 LW Koln / Bonn DEU eu JO30pv 25 439 273 100
2226228 2021-11-26 1205 303 KPG Sogndal / Haukasen / Kaupanger NOR eu JP31oe 1111 690 17
2226232 2021-11-26 1205 306.5 AV Avord FRA eu JN16lv 558 347 165
2226233 2021-11-26 1205 307 DIK Diekirch LUX eu JN39bu 411 255 119
2226239 2021-11-26 1205 309 DO Dole / Tavaux FRA eu JN26px 612 380 148
2226253 2021-11-26 1205 315 HOL Villacoublay / Velizy FRA eu JN08vr 25 341 212 171
2226252 2021-11-26 1205 314 OZ Brussels National BEL eu JO20ft 255 158 113
2226245 2021-11-26 1205 311 LMA Lima / Bruggen DEU eu JO31ei 25 366 227 95
2226246 2021-11-26 1205 311 CEL Celle DEU eu JO52ao 25 614 382 77